createdAt,value
2022-10-19T00:00:38.813Z,95915.38
2022-10-19T00:07:02.535Z,95921.63
2022-10-19T00:10:13.138Z,95921.41
2022-10-19T00:13:21.357Z,95912.50
2022-10-19T00:16:34.017Z,95913.03
2022-10-19T00:19:42.504Z,95914.75
2022-10-19T00:22:51.756Z,95911.22
2022-10-19T00:26:01.678Z,95914.97
2022-10-19T00:29:12.295Z,95913.84
2022-10-19T00:32:20.807Z,95925.78
2022-10-19T00:35:29.278Z,95921.22
2022-10-19T00:38:37.697Z,95919.63
2022-10-19T00:41:49.120Z,95919.13
2022-10-19T00:45:07.195Z,95922.34
2022-10-19T00:48:22.286Z,95913.44
2022-10-19T00:51:33.509Z,95909.81
2022-10-19T00:54:45.114Z,95906.66
2022-10-19T00:57:55.520Z,95905.72
2022-10-19T01:01:06.778Z,95912.75
2022-10-19T01:04:16.246Z,95909.56
2022-10-19T01:07:26.848Z,95904.44
2022-10-19T01:10:48.421Z,95900.19
2022-10-19T01:14:28.963Z,95907.78
2022-10-19T01:17:54.472Z,95904.44
2022-10-19T01:21:26.106Z,95899.38
2022-10-19T01:25:00.620Z,95908.56
2022-10-19T01:28:33.739Z,95903.78
2022-10-19T01:31:53.761Z,95890.19
2022-10-19T01:35:11.329Z,95898.91
2022-10-19T01:38:35.003Z,95885.56
2022-10-19T01:41:52.112Z,95880.78
2022-10-19T01:45:07.246Z,95881.22
2022-10-19T01:48:24.457Z,95887.97
2022-10-19T01:51:39.329Z,95880.88
2022-10-19T01:54:52.933Z,95879.88
2022-10-19T01:58:09.842Z,95881.97
2022-10-19T02:01:23.726Z,95882.41
2022-10-19T02:04:35.345Z,95880.94
2022-10-19T02:07:49.883Z,95884.88
2022-10-19T02:11:02.515Z,95885.59
2022-10-19T02:14:16.479Z,95892.94
2022-10-19T02:17:32.063Z,95888.44
2022-10-19T02:20:41.585Z,95884.44
2022-10-19T02:23:51.894Z,95881.63
2022-10-19T02:27:05.416Z,95882.72
2022-10-19T02:30:18.493Z,95886.69
2022-10-19T02:33:27.275Z,95882.00
2022-10-19T02:36:37.123Z,95875.66
2022-10-19T02:39:45.728Z,95873.00
2022-10-19T02:43:01.910Z,95864.34
2022-10-19T02:46:18.555Z,95872.16
2022-10-19T02:49:28.604Z,95864.91
2022-10-19T02:52:39.742Z,95871.56
2022-10-19T02:55:50.912Z,95864.09
2022-10-19T02:58:59.181Z,95863.09
2022-10-19T03:02:07.458Z,95863.63
2022-10-19T03:05:15.788Z,95863.31
2022-10-19T03:08:25.462Z,95862.16
2022-10-19T03:11:33.773Z,95861.78
2022-10-19T03:14:42.181Z,95872.16
2022-10-19T03:17:54.309Z,95855.56
2022-10-19T03:21:08.986Z,95857.41
2022-10-19T03:24:18.857Z,95854.53
2022-10-19T03:27:27.308Z,95853.59
2022-10-19T03:30:35.762Z,95853.84
2022-10-19T03:33:44.024Z,95853.63
2022-10-19T03:36:52.329Z,95849.38
2022-10-19T03:40:02.427Z,95851.09
2022-10-19T03:43:10.612Z,95843.91
2022-10-19T03:46:19.579Z,95833.25
2022-10-19T03:49:27.755Z,95836.13
2022-10-19T03:52:35.943Z,95835.94
2022-10-19T03:55:45.476Z,95837.03
2022-10-19T03:58:56.302Z,95835.41
2022-10-19T04:02:05.047Z,95832.28
2022-10-19T04:05:13.586Z,95824.88
2022-10-19T04:08:21.757Z,95835.19
2022-10-19T04:11:33.859Z,95829.72
2022-10-19T04:14:56.200Z,95833.03
2022-10-19T04:18:05.932Z,95827.94
2022-10-19T04:21:24.195Z,95826.28
2022-10-19T04:24:32.738Z,95836.38
2022-10-19T04:27:42.781Z,95834.72
2022-10-19T04:30:51.216Z,95836.25
2022-10-19T04:33:59.453Z,95840.16
2022-10-19T04:37:07.915Z,95836.91
2022-10-19T04:40:16.572Z,95829.53
2022-10-19T04:43:26.232Z,95832.84
2022-10-19T04:46:34.790Z,95822.63
2022-10-19T04:49:43.269Z,95821.44
2022-10-19T04:52:51.780Z,95815.34
2022-10-19T04:56:00.510Z,95819.53
2022-10-19T04:59:11.671Z,95812.09
2022-10-19T05:02:20.184Z,95812.88
2022-10-19T05:05:28.672Z,95810.19
2022-10-19T05:08:38.051Z,95808.59
2022-10-19T05:11:46.264Z,95808.63
2022-10-19T05:14:56.086Z,95806.59
2022-10-19T05:18:04.575Z,95811.53
2022-10-19T05:21:15.290Z,95809.50
2022-10-19T05:24:23.993Z,95806.03
2022-10-19T05:27:32.719Z,95806.03
2022-10-19T05:30:46.672Z,95797.28
2022-10-19T05:33:57.852Z,95799.75
2022-10-19T05:37:06.114Z,95798.03
2022-10-19T05:40:14.274Z,95800.28
2022-10-19T05:43:22.464Z,95803.34
2022-10-19T05:46:33.666Z,95797.94
2022-10-19T05:49:41.953Z,95793.22
2022-10-19T05:52:50.105Z,95797.19
2022-10-19T05:55:59.127Z,95800.69
2022-10-19T05:59:09.869Z,95800.34
2022-10-19T06:02:19.546Z,95805.09
2022-10-19T06:05:28.139Z,95805.91
2022-10-19T06:08:37.383Z,95807.19
2022-10-19T06:11:46.398Z,95801.03
2022-10-19T06:14:55.678Z,95803.09
2022-10-19T06:18:07.655Z,95804.34
2022-10-19T06:21:19.014Z,95805.63
2022-10-19T06:24:27.287Z,95815.91
2022-10-19T06:27:36.409Z,95810.19
2022-10-19T06:30:45.176Z,95812.31
2022-10-19T06:33:55.823Z,95825.06
2022-10-19T06:37:04.229Z,95819.34
2022-10-19T06:40:13.303Z,95829.25
2022-10-19T06:43:21.571Z,95829.69
2022-10-19T06:46:30.020Z,95826.44
2022-10-19T06:49:39.857Z,95832.00
2022-10-19T06:52:48.860Z,95834.50
2022-10-19T06:55:59.949Z,95836.34
2022-10-19T06:59:08.465Z,95846.69
2022-10-19T07:02:16.894Z,95844.22
2022-10-19T07:05:26.827Z,95840.31
2022-10-19T07:08:37.559Z,95838.88
2022-10-19T07:11:46.371Z,95845.25
2022-10-19T07:14:55.628Z,95849.56
2022-10-19T07:18:04.030Z,95836.53
2022-10-19T07:21:16.985Z,95846.06
2022-10-19T07:24:26.220Z,95845.44
2022-10-19T07:27:40.131Z,95837.94
2022-10-19T07:30:48.738Z,95838.28
2022-10-19T07:33:58.978Z,95837.25
2022-10-19T07:37:08.762Z,95845.63
2022-10-19T07:40:17.071Z,95843.09
2022-10-19T07:43:25.443Z,95841.59
2022-10-19T07:46:35.812Z,95843.25
2022-10-19T07:49:44.178Z,95840.97
2022-10-19T07:52:54.885Z,95841.09
2022-10-19T07:56:09.905Z,95843.53
2022-10-19T07:59:18.165Z,95849.81
2022-10-19T08:02:30.899Z,95847.22
2022-10-19T08:05:47.826Z,95844.53
2022-10-19T08:08:58.023Z,95846.69
2022-10-19T08:12:07.325Z,95838.63
2022-10-19T08:15:15.906Z,95844.00
2022-10-19T08:18:24.127Z,95843.16
2022-10-19T08:21:32.665Z,95841.78
2022-10-19T08:24:42.455Z,95854.47
2022-10-19T08:27:51.320Z,95852.19
2022-10-19T08:30:59.827Z,95846.56
2022-10-19T08:34:09.329Z,95833.16
2022-10-19T08:37:26.284Z,95843.38
2022-10-19T08:40:48.551Z,95840.38
2022-10-19T08:44:35.361Z,95840.97
2022-10-19T08:48:03.241Z,95846.84
2022-10-19T08:51:14.689Z,95837.97
2022-10-19T08:54:24.048Z,95845.72
2022-10-19T08:57:49.966Z,95838.16
2022-10-19T09:01:08.479Z,95838.63
2022-10-19T09:04:25.549Z,95836.38
2022-10-19T09:07:45.476Z,95835.50
2022-10-19T09:10:57.451Z,95830.75
2022-10-19T09:14:17.539Z,95834.69
2022-10-19T09:17:26.147Z,95834.59
2022-10-19T09:20:42.429Z,95839.69
2022-10-19T09:24:03.563Z,95835.03
2022-10-19T09:27:22.717Z,95845.84
2022-10-19T09:30:39.984Z,95843.09
2022-10-19T09:33:57.210Z,95837.13
2022-10-19T09:37:06.168Z,95833.78
2022-10-19T09:40:19.490Z,95831.09
2022-10-19T09:43:28.378Z,95836.34
2022-10-19T09:46:52.412Z,95841.38
2022-10-19T09:50:20.627Z,95845.19
2022-10-19T09:53:31.338Z,95839.03
2022-10-19T09:56:40.716Z,95841.09
2022-10-19T09:59:53.570Z,95841.50
2022-10-19T10:03:03.280Z,95851.56
2022-10-19T10:06:17.246Z,95841.75
2022-10-19T10:09:29.988Z,95848.03
2022-10-19T10:12:41.345Z,95848.44
2022-10-19T10:15:55.492Z,95855.53
2022-10-19T10:19:09.938Z,95848.78
2022-10-19T10:22:28.192Z,95844.19
2022-10-19T10:25:37.899Z,95839.69
2022-10-19T10:28:51.968Z,95835.47
2022-10-19T10:32:07.217Z,95838.19
2022-10-19T10:35:25.676Z,95834.19
2022-10-19T10:38:38.128Z,95826.13
2022-10-19T10:41:50.310Z,95822.88
2022-10-19T10:45:00.893Z,95827.50
2022-10-19T10:48:27.982Z,95820.28
2022-10-19T10:51:42.346Z,95826.16
2022-10-19T10:55:03.606Z,95815.22
2022-10-19T10:58:24.261Z,95819.47
2022-10-19T11:01:41.633Z,95822.19
2022-10-19T11:04:57.414Z,95812.56
2022-10-19T11:08:19.839Z,95808.25
2022-10-19T11:11:37.412Z,95798.69
2022-10-19T11:14:52.285Z,95797.38
2022-10-19T11:18:18.075Z,95787.72
2022-10-19T11:21:38.429Z,95789.38
2022-10-19T11:25:28.493Z,95786.63
2022-10-19T11:28:55.370Z,95789.66
2022-10-19T11:32:05.705Z,95785.53
2022-10-19T11:35:35.604Z,95784.09
2022-10-19T11:39:01.766Z,95781.97
2022-10-19T11:42:22.272Z,95772.81
2022-10-19T11:45:48.525Z,95768.56
2022-10-19T11:49:23.930Z,95769.28
2022-10-19T11:52:46.527Z,95763.72
2022-10-19T11:56:04.790Z,95760.00
2022-10-19T11:59:30.748Z,95759.72
2022-10-19T12:03:26.041Z,95753.59
2022-10-19T12:06:52.501Z,95750.69
2022-10-19T12:10:18.122Z,95746.63
2022-10-19T12:13:39.463Z,95744.97
2022-10-19T12:16:57.419Z,95735.25
2022-10-19T12:20:21.435Z,95737.94
2022-10-19T12:23:35.682Z,95734.75
2022-10-19T12:26:47.203Z,95729.28
2022-10-19T12:29:59.625Z,95731.66
2022-10-19T12:33:21.968Z,95722.28
2022-10-19T12:36:43.669Z,95715.88
2022-10-19T12:39:59.725Z,95712.63
2022-10-19T12:43:18.584Z,95705.50
2022-10-19T12:46:39.884Z,95701.47
2022-10-19T12:49:53.631Z,95694.44
2022-10-19T12:53:02.312Z,95690.56
2022-10-19T12:56:18.919Z,95684.44
2022-10-19T12:59:31.478Z,95686.84
2022-10-19T13:02:43.160Z,95687.31
2022-10-19T13:06:00.709Z,95685.50
2022-10-19T13:09:24.339Z,95670.97
2022-10-19T13:12:49.045Z,95678.53
2022-10-19T13:15:58.391Z,95676.88
2022-10-19T13:19:22.167Z,95675.22
2022-10-19T13:22:32.550Z,95673.56
2022-10-19T13:25:42.280Z,95672.44
2022-10-19T13:28:57.235Z,95671.88
2022-10-19T13:32:37.771Z,95669.06
2022-10-19T13:35:48.244Z,95665.34
2022-10-19T13:39:16.460Z,95661.69
2022-10-19T13:42:28.391Z,95648.28
2022-10-19T13:45:38.440Z,95642.22
2022-10-19T13:49:36.672Z,95639.84
2022-10-19T13:53:26.001Z,95640.69
2022-10-19T13:56:59.983Z,95638.31
2022-10-19T14:00:19.724Z,95634.69
2022-10-19T14:03:47.930Z,95630.13
2022-10-19T14:07:01.871Z,95620.09
2022-10-19T14:10:17.907Z,95619.22
2022-10-19T14:13:27.896Z,95623.06
2022-10-19T14:16:36.635Z,95623.66
2022-10-19T14:19:48.042Z,95615.75
2022-10-19T14:22:56.427Z,95608.19
2022-10-19T14:26:11.586Z,95611.47
2022-10-19T14:29:22.244Z,95615.22
2022-10-19T14:32:36.624Z,95608.13
2022-10-19T14:35:54.442Z,95604.06
2022-10-19T14:39:03.294Z,95598.09
2022-10-19T14:42:12.879Z,95601.81
2022-10-19T14:45:26.207Z,95595.03
2022-10-19T14:48:36.909Z,95589.28
2022-10-19T14:51:51.289Z,95588.16
2022-10-19T14:55:10.571Z,95587.94
2022-10-19T14:58:25.454Z,95583.09
2022-10-19T15:01:36.939Z,95581.53
2022-10-19T15:04:45.499Z,95588.03
2022-10-19T15:07:54.717Z,95586.88
2022-10-19T15:11:03.062Z,95573.09
2022-10-19T15:14:16.853Z,95581.81
2022-10-19T15:17:30.268Z,95579.50
2022-10-19T15:20:49.486Z,95583.13
2022-10-19T15:24:28.221Z,95578.50
2022-10-19T15:27:39.689Z,95575.06
2022-10-19T15:31:00.903Z,95578.69
2022-10-19T15:34:28.826Z,95571.84
2022-10-19T15:37:45.743Z,95573.84
2022-10-19T15:41:00.223Z,95578.84
2022-10-19T15:44:31.881Z,95565.75
2022-10-19T15:48:24.993Z,95563.06
2022-10-19T15:51:48.787Z,95552.81
2022-10-19T15:54:59.993Z,95565.91
2022-10-19T15:58:11.173Z,95560.75
2022-10-19T16:01:22.578Z,95559.28
2022-10-19T16:04:31.172Z,95564.56
2022-10-19T16:07:42.664Z,95557.41
2022-10-19T16:10:50.966Z,95562.22
2022-10-19T16:13:59.273Z,95563.00
2022-10-19T16:17:07.595Z,95565.91
2022-10-19T16:20:17.510Z,95562.66
2022-10-19T16:23:27.918Z,95566.19
2022-10-19T16:26:36.385Z,95565.75
2022-10-19T16:29:45.573Z,95571.28
2022-10-19T16:32:53.993Z,95581.59
2022-10-19T16:36:06.445Z,95579.94
2022-10-19T16:39:15.974Z,95576.44
2022-10-19T16:42:29.667Z,95574.59
2022-10-19T16:45:43.581Z,95573.78
2022-10-19T16:48:51.969Z,95563.06
2022-10-19T16:52:01.622Z,95570.06
2022-10-19T16:55:12.580Z,95582.44
2022-10-19T16:58:21.073Z,95579.31
2022-10-19T17:01:31.183Z,95582.59
2022-10-19T17:04:41.602Z,95579.72
2022-10-19T17:07:50.086Z,95580.97
2022-10-19T17:11:10.419Z,95582.00
2022-10-19T17:14:18.710Z,95582.84
2022-10-19T17:17:27.016Z,95578.72
2022-10-19T17:20:35.193Z,95579.72
2022-10-19T17:23:45.226Z,95575.00
2022-10-19T17:26:55.651Z,95577.84
2022-10-19T17:30:04.573Z,95580.16
2022-10-19T17:33:12.871Z,95574.19
2022-10-19T17:36:25.273Z,95572.31
2022-10-19T17:39:33.526Z,95568.38
2022-10-19T17:42:43.200Z,95563.84
2022-10-19T17:45:59.870Z,95576.66
2022-10-19T17:49:08.930Z,95576.44
2022-10-19T17:52:17.391Z,95574.19
2022-10-19T17:55:27.102Z,95561.41
2022-10-19T17:58:39.859Z,95559.34
2022-10-19T18:01:48.461Z,95555.63
2022-10-19T18:04:56.797Z,95553.59
2022-10-19T18:08:05.146Z,95549.88
2022-10-19T18:11:17.615Z,95552.16
2022-10-19T18:14:27.408Z,95548.84
2022-10-19T18:17:36.118Z,95547.84
2022-10-19T18:20:44.648Z,95559.38
2022-10-19T18:23:54.380Z,95558.13
2022-10-19T18:27:02.825Z,95556.88
2022-10-19T18:30:13.444Z,95555.22
2022-10-19T18:33:23.326Z,95559.75
2022-10-19T18:36:32.866Z,95553.13
2022-10-19T18:39:42.556Z,95550.03
2022-10-19T18:42:53.884Z,95556.69
2022-10-19T18:46:03.486Z,95556.66
2022-10-19T18:49:13.548Z,95546.75
2022-10-19T18:52:21.985Z,95557.38
2022-10-19T18:55:31.171Z,95548.28
2022-10-19T18:58:40.502Z,95549.84
2022-10-19T19:01:50.672Z,95540.44
2022-10-19T19:04:59.166Z,95542.34
2022-10-19T19:08:07.533Z,95548.25
2022-10-19T19:11:19.082Z,95543.66
2022-10-19T19:14:27.700Z,95535.13
2022-10-19T19:17:38.088Z,95535.53
2022-10-19T19:20:46.403Z,95528.97
2022-10-19T19:23:57.588Z,95521.25
2022-10-19T19:27:05.902Z,95520.25
2022-10-19T19:30:14.206Z,95519.06
2022-10-19T19:33:23.788Z,95514.91
2022-10-19T19:36:32.057Z,95517.78
2022-10-19T19:39:41.293Z,95513.47
2022-10-19T19:42:49.613Z,95510.75
2022-10-19T19:46:01.966Z,95503.22
2022-10-19T19:49:14.784Z,95512.19
2022-10-19T19:52:23.092Z,95511.69
2022-10-19T19:55:38.240Z,95519.91
2022-10-19T19:58:48.633Z,95507.66
2022-10-19T20:01:56.903Z,95516.31
2022-10-19T20:05:06.959Z,95512.53
2022-10-19T20:08:15.275Z,95516.06
2022-10-19T20:11:25.368Z,95512.94
2022-10-19T20:14:33.770Z,95505.97
2022-10-19T20:17:42.644Z,95507.25
2022-10-19T20:20:52.822Z,95501.03
2022-10-19T20:24:03.586Z,95504.19
2022-10-19T20:31:07.881Z,95501.38
2022-10-19T20:34:20.537Z,95499.38
2022-10-19T20:37:32.808Z,95492.94
2022-10-19T20:40:41.653Z,95491.13
2022-10-19T20:43:51.009Z,95489.00
2022-10-19T20:46:59.344Z,95496.50
2022-10-19T20:50:09.937Z,95490.44
2022-10-19T20:53:19.973Z,95489.84
2022-10-19T20:56:31.867Z,95494.34
2022-10-19T20:59:40.134Z,95490.59
2022-10-19T21:02:48.384Z,95482.34
2022-10-19T21:05:56.616Z,95484.78
2022-10-19T21:09:06.646Z,95465.56
2022-10-19T21:12:15.650Z,95472.25
2022-10-19T21:15:23.845Z,95470.81
2022-10-19T21:18:32.093Z,95472.91
2022-10-19T21:21:43.742Z,95474.66
2022-10-19T21:24:53.812Z,95484.06
2022-10-19T21:28:02.141Z,95477.56
2022-10-19T21:31:11.444Z,95478.50
2022-10-19T21:34:22.356Z,95479.66
2022-10-19T21:37:30.944Z,95463.09
2022-10-19T21:40:40.501Z,95461.03
2022-10-19T21:43:49.336Z,95468.41
2022-10-19T21:46:57.704Z,95468.78
2022-10-19T21:50:07.433Z,95463.91
2022-10-19T21:53:20.604Z,95463.34
2022-10-19T21:56:30.617Z,95456.66
2022-10-19T21:59:39.052Z,95454.38
2022-10-19T22:02:49.490Z,95458.50
2022-10-19T22:05:57.674Z,95440.72
2022-10-19T22:09:08.900Z,95441.28
2022-10-19T22:12:18.682Z,95442.28
2022-10-19T22:15:26.846Z,95434.47
2022-10-19T22:18:35.818Z,95425.47
2022-10-19T22:21:44.588Z,95429.69
2022-10-19T22:24:52.931Z,95426.56
2022-10-19T22:28:03.405Z,95425.28
2022-10-19T22:31:13.157Z,95419.97
2022-10-19T22:34:21.712Z,95419.22
2022-10-19T22:37:29.973Z,95414.75
2022-10-19T22:40:38.341Z,95414.94
2022-10-19T22:43:51.998Z,95396.88
2022-10-19T22:47:00.458Z,95395.00
2022-10-19T22:50:11.809Z,95390.94
2022-10-19T22:53:23.409Z,95392.25
2022-10-19T22:56:31.967Z,95389.09
2022-10-19T22:59:41.521Z,95392.69
2022-10-19T23:02:49.759Z,95396.19
2022-10-19T23:05:58.257Z,95390.41
2022-10-19T23:09:06.554Z,95387.47
2022-10-19T23:12:15.118Z,95385.94
2022-10-19T23:15:24.724Z,95390.84
2022-10-19T23:18:33.595Z,95396.44
2022-10-19T23:21:42.051Z,95399.31
2022-10-19T23:24:50.371Z,95406.34
2022-10-19T23:27:58.527Z,95418.06
2022-10-19T23:31:11.504Z,95405.25
2022-10-19T23:34:20.004Z,95410.69
2022-10-19T23:37:28.260Z,95413.09
2022-10-19T23:40:36.716Z,95400.00
2022-10-19T23:43:45.500Z,95400.03
2022-10-19T23:46:55.099Z,95394.72
2022-10-19T23:50:03.595Z,95392.47
2022-10-19T23:53:12.238Z,95391.47
2022-10-19T23:56:23.516Z,95391.72
2022-10-19T23:59:31.989Z,95392.31
